DW8790 Weather Reports


time (UTC)temp
F
wind
direction
speed
knots
gust
knots
rain 1hr
in
rain 24hr
in
rain mn
in
humidity
%
barometer
mb
20260902221436 76 266 0.0 0.0 0.00 0.00 0.00 71 1015.2
20260902220938 76 266 0.0 0.0 0.00 0.00 0.00 71 1015.2
20260902220436 76 266 0.0 0.0 0.00 0.00 0.00 72 1015.2
20260902215937 76 278 0.0 0.0 0.00 0.00 0.00 72 1015.2
20260902215437 76 296 0.0 0.0 0.00 0.00 0.00 72 1015.3
20260902214937 76 290 0.0 0.0 0.00 0.00 0.00 72 1015.2
20260902214437 76 294 0.0 0.0 0.00 0.00 0.00 72 1015.2
20260902213937 76 302 0.0 0.0 0.00 0.00 0.00 72 1015.0
20260902213436 76 305 0.0 0.0 0.00 0.00 0.00 72 1015.0
20260902212936 76 311 0.0 0.0 0.00 0.00 0.00 72 1014.9
20260902212437 76 165 0.0 0.0 0.00 0.00 0.00 72 1015.0
20260902211937 76 165 0.0 0.0 0.00 0.00 0.00 73 1015.0
20260902210937 76 165 0.0 0.0 0.00 0.00 0.00 73 1014.9
20260902210436 76 165 0.0 0.0 0.00 0.00 0.00 73 1014.8
20260902205936 76 165 0.0 0.0 0.00 0.00 0.00 73 1014.6
20260902205437 76 165 0.0 0.0 0.00 0.00 0.00 73 1014.5
20260902204937 76 165 0.0 0.0 0.00 0.00 0.00 74 1014.4
20260902204437 76 165 0.0 0.0 0.00 0.00 0.00 74 1014.5
20260902203937 76 165 0.0 0.0 0.00 0.00 0.00 74 1014.3
20260902202937 77 165 0.0 0.0 0.00 0.00 0.00 74 1014.2
20260902202437 77 165 0.0 0.0 0.00 0.00 0.00 74 1014.2
20260902201437 77 165 0.0 0.0 0.00 0.00 0.00 74 1013.9
20260902200937 77 165 0.0 0.0 0.00 0.00 0.00 74 1013.9
20260902195937 76 165 0.0 0.0 0.00 0.00 0.00 74 1013.9
20260902195437 77 165 0.0 0.0 0.00 0.00 0.00 74 1014.0
20260902194937 77 165 0.0 0.0 0.00 0.00 0.00 74 1014.0
20260902193437 77 159 0.0 0.0 0.00 0.00 0.00 74 1013.9
20260902192938 77 159 0.0 0.0 0.00 0.00 0.00 73 1013.8
20260902191938 78 159 0.0 0.0 0.00 0.00 0.00 72 1013.7
20260902191438 78 164 0.0 0.0 0.00 0.00 0.00 71 1013.8
20260902190938 78 187 0.0 0.0 0.00 0.00 0.00 71 1013.7
20260902190437 78 159 0.0 0.0 0.00 0.00 0.00 70 1013.8
20260902185939 79 164 0.0 0.0 0.00 0.00 0.00 70 1013.7
20260902185438 79 152 0.0 0.0 0.00 0.00 0.00 68 1013.7
20260902184938 79 156 0.0 0.9 0.00 0.00 0.00 67 1013.6
20260902184438 79 157 0.9 2.6 0.00 0.00 0.00 66 1013.8
20260902183941 79 166 0.9 2.6 0.00 0.00 0.00 66 1014.0
20260902180437 81 179 2.6 7.8 0.00 0.00 0.00 63 1014.5
20260902175937 81 192 2.6 6.1 0.00 0.00 0.00 63 1014.5
20260902175438 81 165 1.7 8.7 0.00 0.00 0.00 64 1014.6
20260902174938 81 167 4.3 12.2 0.00 0.00 0.00 63 1014.7
20260902174437 82 184 3.5 7.0 0.00 0.00 0.00 62 1014.8
20260902173938 82 164 3.5 10.4 0.00 0.00 0.00 62 1014.8
20260902173437 83 159 5.2 8.7 0.00 0.00 0.00 62 1014.9
20260902172438 84 164 3.5 8.7 0.00 0.00 0.00 59 1014.9
20260902171938 84 182 1.7 5.2 0.00 0.00 0.00 60 1014.9
20260902171437 83 204 1.7 5.2 0.00 0.00 0.00 60 1015.1
20260902170939 83 199 3.5 6.1 0.00 0.00 0.00 62 1015.1
20260902170438 83 190 2.6 5.2 0.00 0.00 0.00 62 1015.3
20260902165940 83 205 0.9 5.2 0.00 0.00 0.00 63 1015.3
20260902165439 83 213 1.7 7.0 0.00 0.00 0.00 64 1015.4
20260902164438 83 221 2.6 7.0 0.00 0.00 0.00 62 1015.6
20260902163938 83 187 2.6 7.0 0.00 0.00 0.00 62 1015.6
20260902163439 84 185 2.6 5.2 0.00 0.00 0.00 60 1015.6
20260902162940 84 152 1.7 6.1 0.00 0.00 0.00 60 1015.6
20260902162504 85 170 1.7 5.2 0.00 0.00 0.00 59 1015.7
20260902162006 85 264 0.0 1.7 0.00 0.00 0.00 58 1015.7
20260902161504 84 334 0.0 1.7 0.00 0.00 0.00 60 1015.7
20260902160937 83 298 0.0 1.7 0.00 0.00 0.00 61 1015.6
20260902160436 83 342 2.6 5.2 0.00 0.00 0.00 61 1015.7
20260902155937 83 238 0.0 1.7 0.00 0.00 0.00 61 1015.8
20260902155437 82 284 0.9 2.6 0.00 0.00 0.00 63 1015.9
20260902154937 82 310 0.0 2.6 0.00 0.00 0.00 64 1016.0
20260902154437 81 270 0.9 2.6 0.00 0.00 0.00 65 1016.0
20260902153437 81 250 1.7 4.3 0.00 0.00 0.00 66 1016.2
20260902152938 81 229 1.7 5.2 0.00 0.00 0.00 65 1016.2
20260902151938 81 231 2.6 6.1 0.00 0.00 0.00 62 1016.1
20260902151438 81 222 3.5 6.1 0.00 0.00 0.00 62 1016.1
20260902150938 81 200 2.6 6.1 0.00 0.00 0.00 61 1016.1
20260902150438 82 210 3.5 7.8 0.00 0.00 0.00 57 1016.1
20260902145939 83 196 1.7 5.2 0.00 0.00 0.00 56 1016.0
20260902145438 83 221 1.7 6.1 0.00 0.00 0.00 57 1015.8
20260902144938 83 217 2.6 8.7 0.00 0.00 0.00 57 1015.8
20260902143938 84 205 3.5 7.8 0.00 0.00 0.00 53 1015.8
20260902143438 84 185 2.6 6.1 0.00 0.00 0.00 53 1015.7
20260902142938 84 236 3.5 7.0 0.00 0.00 0.00 53 1015.7
20260902142438 84 226 0.9 8.7 0.00 0.00 0.00 54 1015.7
20260902141938 85 213 4.3 7.0 0.00 0.00 0.00 52 1015.7
20260902141438 84 238 0.9 4.3 0.00 0.00 0.00 53 1015.7
20260902140939 84 281 2.6 6.1 0.00 0.00 0.00 54 1015.7
20260902140438 84 196 2.6 7.8 0.00 0.00 0.00 54 1015.9
20260902135938 84 199 1.7 7.0 0.00 0.00 0.00 55 1015.9
20260902135438 84 248 3.5 7.0 0.00 0.00 0.00 54 1016.0
20260902134938 84 241 4.3 7.8 0.00 0.00 0.00 54 1016.0
20260902134438 85 250 1.7 8.7 0.00 0.00 0.00 52 1016.0
20260902133938 85 221 2.6 10.4 0.00 0.00 0.00 53 1016.0
20260902133438 85 226 4.3 7.8 0.00 0.00 0.00 50 1016.1
20260902132937 86 235 4.3 7.8 0.00 0.00 0.00 49 1016.1
20260902131937 85 200 4.3 10.4 0.00 0.00 0.00 50 1016.1
20260902131437 85 225 2.6 8.7 0.00 0.00 0.00 54 1016.0
20260902130937 86 208 3.5 8.7 0.00 0.00 0.00 52 1016.0
20260902130437 85 205 5.2 10.4 0.00 0.00 0.00 47 1015.9
20260902125937 86 230 2.6 6.1 0.00 0.00 0.00 50 1015.9
20260902125437 85 208 4.3 7.0 0.00 0.00 0.00 52 1016.0
20260902124937 85 247 1.7 6.1 0.00 0.00 0.00 61 1016.0
20260902124438 85 231 2.6 6.1 0.00 0.00 0.00 60 1016.0
20260902123437 84 221 0.9 4.3 0.00 0.00 0.00 59 1016.0
20260902122438 84 198 1.7 4.3 0.00 0.00 0.00 60 1016.4
20260902121939 83 274 0.9 2.6 0.00 0.00 0.00 62 1016.4
20260902121438 82 191 0.9 6.1 0.00 0.00 0.00 62 1016.4
20260902120938 82 183 1.7 2.6 0.00 0.00 0.00 64 1016.4
20260902115938 81 233 1.7 2.6 0.00 0.00 0.00 66 1016.5
20260902115438 81 248 1.7 5.2 0.00 0.00 0.00 67 1016.6
20260902114438 80 266 1.7 2.6 0.00 0.00 0.00 67 1016.8
20260902113438 80 238 1.7 6.1 0.00 0.00 0.00 68 1017.0
20260902112937 80 274 0.9 7.8 0.00 0.00 0.00 69 1017.0
20260902112437 79 247 2.6 7.8 0.00 0.00 0.00 70 1017.1
20260902111438 80 253 1.7 6.1 0.00 0.00 0.00 69 1017.2
20260902110938 79 224 1.7 6.1 0.00 0.00 0.00 69 1017.2
20260902110437 79 228 2.6 7.0 0.00 0.00 0.00 69 1017.3
20260902105437 79 207 2.6 7.0 0.00 0.00 0.00 70 1017.5
20260902103937 79 202 4.3 7.8 0.00 0.00 0.00 69 1017.5
20260902102938 79 196 4.3 7.8 0.00 0.00 0.00 69 1017.5
20260902102437 79 198 1.7 6.1 0.00 0.00 0.00 69 1017.3
20260902101937 80 183 1.7 5.2 0.00 0.00 0.00 67 1017.3
20260902101437 79 200 1.7 5.2 0.00 0.00 0.00 67 1017.2
20260902100938 79 219 0.0 2.6 0.00 0.00 0.00 68 1017.2
20260902100437 79 183 1.7 4.3 0.00 0.00 0.00 68 1017.2
20260902095937 79 190 0.9 4.3 0.00 0.00 0.00 69 1017.2
20260902095437 78 328 0.9 2.6 0.00 0.00 0.00 69 1017.1
20260902094938 78 260 1.7 5.2 0.00 0.00 0.00 70 1017.1
20260902094437 78 230 1.7 4.3 0.00 0.00 0.00 70 1017.0
20260902093937 78 214 0.9 2.6 0.00 0.00 0.00 70 1017.0
20260902093437 78 242 2.6 5.2 0.00 0.00 0.00 70 1017.1
20260902092938 78 260 2.6 7.0 0.00 0.00 0.00 70 1017.1
20260902092438 78 283 0.0 2.6 0.00 0.00 0.00 71 1017.0
20260902091938 78 314 0.9 4.3 0.00 0.00 0.00 71 1016.9
20260902091437 78 309 1.7 6.1 0.00 0.00 0.00 72 1016.9
20260902090937 78 303 1.7 2.6 0.00 0.00 0.00 73 1016.9
20260902090436 77 298 2.6 4.3 0.00 0.00 0.00 73 1016.8
20260902085437 77 295 2.6 5.2 0.00 0.00 0.00 73 1016.7
20260902084937 77 261 2.6 5.2 0.00 0.00 0.00 74 1016.7
20260902084437 76 246 1.7 2.6 0.00 0.00 0.00 74 1016.7
20260902083938 76 299 0.0 0.0 0.00 0.00 0.00 75 1016.6
20260902082936 76 289 0.0 0.0 0.00 0.00 0.00 75 1016.5
20260902081937 75 327 0.0 0.0 0.00 0.00 0.00 77 1016.4
20260902081436 75 319 0.0 0.0 0.00 0.00 0.00 78 1016.2
20260902080936 75 322 0.0 0.0 0.00 0.00 0.00 79 1016.2
20260902080437 74 293 0.0 0.0 0.00 0.00 0.00 80 1016.1
20260902075936 74 342 0.0 2.6 0.00 0.00 0.00 81 1016.0
20260902074936 73 311 0.0 0.0 0.00 0.00 0.00 78 1015.7
20260902074436 73 300 0.0 0.0 0.00 0.00 0.00 78 1015.8
20260902073937 73 342 0.0 0.0 0.00 0.00 0.00 80 1015.8
20260902073437 73 342 0.0 0.0 0.00 0.00 0.00 81 1015.8
20260902072936 72 342 0.0 0.0 0.00 0.00 0.00 80 1015.8
20260902072437 72 298 0.0 0.0 0.00 0.00 0.00 81 1015.6
20260902071937 72 298 0.0 0.0 0.00 0.00 0.00 81 1015.4
20260902071436 72 298 0.0 0.0 0.00 0.00 0.00 80 1015.2
20260902070938 72 298 0.0 0.0 0.00 0.00 0.00 80 1015.1
20260902070437 72 298 0.0 0.0 0.00 0.00 0.00 81 1015.0
20260902065937 72 298 0.0 0.0 0.00 0.00 0.00 81 1014.9
20260902065437 72 298 0.0 0.0 0.00 0.00 0.00 82 1014.9
20260902064938 71 298 0.0 0.0 0.00 0.00 0.00 81 1014.8
20260902064437 71 298 0.0 0.0 0.00 0.00 0.00 81 1014.7
20260902063938 71 298 0.0 0.0 0.00 0.00 0.00 82 1014.6
20260902063437 71 298 0.0 0.0 0.00 0.00 0.00 81 1014.6
20260902062938 71 298 0.0 0.0 0.00 0.00 0.00 81 1014.6
20260902062437 71 298 0.0 0.0 0.00 0.00 0.00 80 1014.5
20260902061438 71 298 0.0 0.0 0.00 0.00 0.00 82 1014.4
20260902060438 71 298 0.0 0.0 0.00 0.00 0.00 83 1014.2
20260902055937 71 298 0.0 0.9 0.00 0.00 0.00 84 1014.1
20260902055438 71 338 0.0 1.7 0.00 0.00 0.00 84 1014.1
20260902054937 71 316 0.0 1.7 0.00 0.00 0.00 84 1014.1
20260902054437 71 314 0.0 0.9 0.00 0.00 0.00 85 1014.2
20260902053937 71 294 0.0 0.9 0.00 0.00 0.00 85 1014.1
20260902052936 71 294 0.0 0.0 0.00 0.00 0.00 85 1014.2
20260902051937 71 294 0.0 0.0 0.00 0.00 0.00 86 1014.2
20260902051436 71 294 0.0 0.0 0.00 0.00 0.00 86 1014.1
20260902050936 71 294 0.0 0.0 0.00 0.00 0.00 87 1014.1
20260902045936 72 294 0.0 0.0 0.00 0.00 0.00 88 1014.1
20260902045437 72 294 0.0 0.0 0.00 0.00 0.00 88 1014.2
20260902044437 72 294 0.0 0.0 0.00 0.00 0.00 88 1014.2
20260902043937 72 294 0.0 0.0 0.00 0.00 0.00 88 1014.2
20260902043436 72 294 0.0 0.0 0.00 0.00 0.00 88 1014.1
20260902042437 72 294 0.0 0.0 0.00 0.00 0.00 88 1014.2
20260902041936 72 294 0.0 0.0 0.00 0.00 0.00 88 1014.2
20260902041436 72 294 0.0 0.0 0.00 0.00 0.00 88 1014.1
20260902040938 72 294 0.0 0.0 0.00 0.00 0.00 88 1014.2
20260902040437 72 294 0.0 0.0 0.00 0.00 0.00 88 1014.1
20260902035936 72 294 0.0 0.0 0.00 0.00 0.00 88 1014.2
20260902035436 72 294 0.0 0.0 0.00 0.00 0.00 88 1014.3
20260902034436 72 294 0.0 0.0 0.00 0.00 0.00 88 1014.3
20260902033936 72 294 0.0 0.0 0.00 0.00 0.00 88 1014.2
20260902033436 72 294 0.0 0.0 0.00 0.00 0.00 88 1014.2
20260902032937 72 294 0.0 0.0 0.00 0.00 0.00 88 1014.3
20260902032436 72 294 0.0 0.0 0.00 0.00 0.00 87 1014.2
20260902031436 72 294 0.0 0.0 0.00 0.00 0.00 87 1014.0
20260902030437 72 294 0.0 0.0 0.00 0.00 0.00 88 1014.1
20260902025936 72 294 0.0 0.0 0.00 0.00 0.00 88 1014.2
20260902025437 72 294 0.0 0.0 0.00 0.00 0.00 88 1014.2
20260902024937 72 294 0.0 0.0 0.00 0.00 0.00 88 1014.3
20260902024436 72 294 0.0 0.0 0.00 0.00 0.00 88 1014.3
20260902023938 72 294 0.0 0.0 0.00 0.00 0.00 88 1014.4
20260902023437 73 294 0.0 0.0 0.00 0.00 0.00 87 1014.3
20260902022938 73 294 0.0 0.0 0.00 0.00 0.00 88 1014.5
20260902022437 73 294 0.0 0.0 0.00 0.00 0.00 88 1014.5
20260902021936 73 294 0.0 0.0 0.00 0.00 0.00 87 1014.6
20260902021437 73 294 0.0 0.0 0.00 0.00 0.00 87 1014.6
20260902020938 73 294 0.0 0.0 0.00 0.00 0.00 87 1014.6
20260902020437 73 294 0.0 0.0 0.00 0.00 0.00 87 1014.6
20260902015936 73 294 0.0 0.0 0.00 0.00 0.00 87 1014.5
20260902015436 74 294 0.0 0.0 0.00 0.00 0.00 87 1014.6
20260902014937 73 294 0.0 0.0 0.00 0.00 0.00 86 1014.6
20260902014437 73 294 0.0 0.0 0.00 0.00 0.00 86 1014.6
20260902013937 73 294 0.0 0.0 0.00 0.00 0.00 86 1014.7
20260902013439 73 316 0.0 0.0 0.00 0.00 0.00 86 1014.8
20260902012937 73 294 0.0 0.0 0.00 0.00 0.00 86 1014.8
20260902012437 73 294 0.0 0.0 0.00 0.00 0.00 85 1014.9
20260902011937 74 294 0.0 0.0 0.00 0.00 0.00 85 1015.0
20260902011438 74 294 0.0 0.0 0.00 0.00 0.00 85 1015.0
20260902010438 74 294 0.0 0.0 0.00 0.00 0.00 85 1015.0
20260902005937 74 294 0.0 0.0 0.00 0.00 0.00 84 1015.1
20260902005436 74 294 0.0 0.0 0.00 0.00 0.00 84 1015.0
20260902004938 74 294 0.0 0.0 0.00 0.00 0.00 83 1015.0
20260902004437 74 294 0.0 0.0 0.00 0.00 0.00 83 1015.0
20260902003437 74 302 0.0 0.0 0.00 0.00 0.00 82 1015.0
20260902002939 74 302 0.0 0.0 0.00 0.00 0.00 82 1015.0
20260902002437 74 302 0.0 0.0 0.00 0.00 0.00 82 1014.9
20260902001937 74 302 0.0 0.0 0.00 0.00 0.00 82 1015.0
20260902000938 74 302 0.0 0.0 0.00 0.00 0.00 82 1015.1
20260902000438 74 302 0.0 0.0 0.00 0.00 0.00 82 1015.2
20260901235937 74 246 0.0 0.0 0.00 0.00 0.00 82 1015.2
20260901234937 74 246 0.0 0.0 0.00 0.00 0.00 82 1015.2
20260901234437 74 246 0.0 0.0 0.00 0.00 0.00 82 1015.3
20260901232937 74 246 0.0 0.0 0.00 0.00 0.00 81 1015.2
20260901231937 74 246 0.0 0.0 0.00 0.00 0.00 80 1015.4
20260901231437 75 246 0.0 0.0 0.00 0.00 0.00 80 1015.4
20260901230937 75 246 0.0 0.0 0.00 0.00 0.00 80 1015.4
20260901230438 75 246 0.0 0.0 0.00 0.00 0.00 80 1015.6
20260901225937 75 246 0.0 0.0 0.00 0.00 0.00 80 1015.5
20260901225437 75 246 0.0 0.0 0.00 0.00 0.00 80 1015.7
20260901224937 75 246 0.0 0.0 0.00 0.00 0.00 80 1015.6
20260901224436 76 246 0.0 0.0 0.00 0.00 0.00 79 1015.7
20260901223937 76 247 0.0 0.0 0.00 0.00 0.00 79 1015.8
20260901223437 76 247 0.0 0.0 0.00 0.00 0.00 78 1015.8
20260901222437 76 247 0.0 0.0 0.00 0.00 0.00 78 1015.9
20260901221937 76 247 0.0 0.0 0.00 0.00 0.00 78 1015.9